Time;durP1;ratioP1;P1;durP2;ratioP2;P2;SDS_P1;SDS_P2;PMS_P1;PMS_P2;Temp;Humidity;BMP_temperature;BMP_pressure;BME280_temperature;BME280_humidity;BME280_pressure;Samples;Min_cycle;Max_cycle;Signal;HPM_P1;HPM_P2
2022/05/14 00:00:16;;;;;;;3.85;0.90;;;14.30;65.80;;;;;;5032085;28;20056;-76
2022/05/14 00:02:47;;;;;;;1.92;0.90;;;14.20;65.90;;;;;;5032304;28;20041;-77
2022/05/14 00:05:14;;;;;;;2.22;0.60;;;14.20;65.90;;;;;;5042271;28;20151;-75
2022/05/14 00:07:41;;;;;;;1.92;0.93;;;14.20;66.00;;;;;;5042516;28;20175;-77
2022/05/14 00:10:10;;;;;;;1.88;0.60;;;14.20;66.00;;;;;;5041195;28;20079;-73
2022/05/14 00:15:24;;;;;;;2.28;0.90;;;14.10;66.30;;;;;;5041227;28;20049;-76
2022/05/14 00:17:51;;;;;;;3.40;0.80;;;14.10;66.50;;;;;;5041745;28;20061;-77
2022/05/14 00:20:19;;;;;;;4.82;0.93;;;14.10;66.60;;;;;;5035149;28;20053;-76
2022/05/14 00:22:46;;;;;;;2.95;1.00;;;14.00;66.90;;;;;;5037558;28;20069;-77
2022/05/14 00:25:13;;;;;;;1.85;0.88;;;14.00;67.10;;;;;;5039920;28;20396;-76
2022/05/14 00:27:44;;;;;;;3.50;0.82;;;14.10;67.10;;;;;;5040432;28;20043;-75
2022/05/14 00:30:13;;;;;;;3.03;1.10;;;14.10;67.00;;;;;;5041780;28;20037;-77
2022/05/14 00:32:42;;;;;;;5.70;0.80;;;14.00;67.10;;;;;;5042192;28;20038;-75
2022/05/14 00:35:10;;;;;;;1.42;0.80;;;14.00;67.10;;;;;;5067827;28;20565;-76
2022/05/14 00:37:38;;;;;;;5.75;1.20;;;14.00;67.20;;;;;;5075092;28;20445;-76
2022/05/14 00:40:08;;;;;;;2.55;0.93;;;13.90;67.10;;;;;;5063994;28;20067;-73
2022/05/14 00:42:35;;;;;;;3.60;1.08;;;13.90;67.20;;;;;;5072525;28;20040;-77
2022/05/14 00:45:04;;;;;;;2.40;0.98;;;13.80;67.20;;;;;;5071385;28;20447;-74
2022/05/14 00:47:36;;;;;;;2.85;1.27;;;13.80;67.30;;;;;;5057347;28;20032;-74
2022/05/14 00:50:06;;;;;;;2.38;1.00;;;13.80;67.30;;;;;;5065032;28;20041;-76
2022/05/14 00:52:33;;;;;;;2.25;1.05;;;13.70;67.50;;;;;;5064499;28;22518;-74
2022/05/14 00:55:03;;;;;;;3.50;1.02;;;13.70;67.60;;;;;;5065414;28;20040;-77
2022/05/14 00:57:35;;;;;;;2.90;1.23;;;13.70;67.70;;;;;;5048478;28;20051;-75
2022/05/14 01:00:06;;;;;;;2.13;0.90;;;13.70;67.70;;;;;;5061592;28;20060;-76
2022/05/14 01:02:33;;;;;;;2.95;0.90;;;13.70;67.70;;;;;;5061160;28;20159;-76
2022/05/14 01:05:00;;;;;;;2.60;1.02;;;13.60;67.70;;;;;;5057305;28;20721;-74
2022/05/14 01:07:30;;;;;;;2.33;1.00;;;13.60;67.80;;;;;;5039049;28;20053;-74
2022/05/14 01:09:59;;;;;;;3.28;0.88;;;13.60;67.80;;;;;;5047436;28;20138;-75
2022/05/14 01:12:29;;;;;;;2.15;0.90;;;13.50;67.90;;;;;;5035719;28;20055;-75
2022/05/14 01:15:06;;;;;;;1.65;0.80;;;13.60;67.90;;;;;;5043702;28;20421;-75
2022/05/14 01:17:34;;;;;;;3.17;1.23;;;13.50;67.90;;;;;;5042173;28;20139;-76
2022/05/14 01:20:01;;;;;;;2.85;0.80;;;13.50;68.00;;;;;;5066910;28;20048;-74
2022/05/14 01:22:40;;;;;;;2.80;1.10;;;13.50;68.00;;;;;;5049137;28;20090;-74
2022/05/14 01:28:11;;;;;;;4.13;1.20;;;13.40;68.20;;;;;;5071083;28;20466;-75
2022/05/14 01:30:47;;;;;;;3.05;1.00;;;13.30;68.40;;;;;;5067585;28;20044;-74
2022/05/14 01:33:14;;;;;;;3.92;1.08;;;13.30;68.40;;;;;;5061294;28;20059;-75
2022/05/14 01:35:44;;;;;;;2.20;1.00;;;13.30;68.40;;;;;;5044881;28;20478;-77
2022/05/14 01:38:17;;;;;;;1.50;0.85;;;13.20;68.40;;;;;;5061602;28;20045;-76
2022/05/14 01:40:44;;;;;;;2.35;0.90;;;13.20;68.40;;;;;;5060098;28;20044;-77
2022/05/14 01:43:13;;;;;;;2.65;0.90;;;13.20;68.50;;;;;;5069730;28;20048;-76
2022/05/14 01:45:41;;;;;;;3.28;1.50;;;13.20;68.60;;;;;;5047225;28;20044;-74
2022/05/14 01:48:09;;;;;;;3.63;0.90;;;13.10;68.80;;;;;;5057465;28;20032;-76
2022/05/14 01:50:36;;;;;;;2.35;1.00;;;13.10;68.80;;;;;;5044280;28;20194;-76
2022/05/14 01:53:03;;;;;;;1.55;0.90;;;13.10;68.80;;;;;;5065880;28;20087;-74
2022/05/14 01:55:30;;;;;;;2.28;1.08;;;13.10;68.80;;;;;;5066484;28;20044;-76
2022/05/14 01:57:57;;;;;;;2.53;0.93;;;13.00;69.00;;;;;;5067559;28;20072;-76
2022/05/14 02:00:33;;;;;;;2.47;1.33;;;12.90;69.20;;;;;;5060896;28;20045;-75
2022/05/14 02:03:00;;;;;;;2.20;1.50;;;13.00;69.20;;;;;;5061580;28;20037;-73
2022/05/14 02:05:26;;;;;;;1.98;0.93;;;13.00;68.90;;;;;;5060220;28;20119;-75
2022/05/14 02:07:56;;;;;;;5.75;1.40;;;12.90;69.00;;;;;;5043261;28;20098;-72
2022/05/14 02:10:23;;;;;;;5.25;1.23;;;12.90;69.10;;;;;;5063948;28;20055;-76
2022/05/14 02:12:50;;;;;;;1.63;0.95;;;12.90;69.10;;;;;;5061063;28;20059;-74
2022/05/14 02:15:17;;;;;;;2.30;1.00;;;12.90;69.10;;;;;;5060348;28;20048;-74
2022/05/14 02:17:46;;;;;;;2.20;1.17;;;12.80;69.30;;;;;;5060055;28;20132;-75
2022/05/14 02:20:13;;;;;;;2.13;0.93;;;12.80;69.50;;;;;;5044171;28;20120;-74
2022/05/14 02:22:40;;;;;;;3.47;1.00;;;12.80;69.30;;;;;;5064351;28;20390;-73
2022/05/14 02:25:09;;;;;;;3.72;1.45;;;12.90;69.30;;;;;;5048963;28;20386;-74
2022/05/14 02:27:36;;;;;;;5.32;1.20;;;12.90;69.10;;;;;;5045882;28;20055;-75
2022/05/14 02:30:04;;;;;;;4.13;0.98;;;12.90;69.00;;;;;;5044359;28;20059;-74
2022/05/14 02:32:31;;;;;;;2.55;1.20;;;12.90;69.00;;;;;;5068985;28;20066;-73
2022/05/14 02:35:00;;;;;;;2.30;1.17;;;12.70;69.20;;;;;;5039204;28;20140;-76
2022/05/14 02:37:28;;;;;;;2.10;1.10;;;12.70;69.10;;;;;;5062501;28;20815;-75
2022/05/14 02:39:56;;;;;;;1.70;0.88;;;12.70;69.10;;;;;;5062084;28;20048;-72
2022/05/14 02:42:23;;;;;;;3.40;0.85;;;12.70;69.20;;;;;;5062817;28;20048;-72
2022/05/14 02:44:50;;;;;;;2.60;0.98;;;12.60;69.30;;;;;;5065255;28;20049;-73
2022/05/14 02:47:17;;;;;;;4.03;1.00;;;12.60;69.30;;;;;;5061999;28;20044;-75
2022/05/14 02:49:45;;;;;;;3.13;0.70;;;12.50;69.70;;;;;;5059429;28;20044;-74
2022/05/14 02:52:13;;;;;;;3.47;1.30;;;12.50;69.80;;;;;;5063640;28;20033;-72
2022/05/14 02:54:41;;;;;;;2.03;0.95;;;12.60;69.60;;;;;;5051954;28;20044;-74
2022/05/14 02:57:08;;;;;;;1.63;1.00;;;12.50;69.50;;;;;;5069639;28;20044;-73
2022/05/14 02:59:36;;;;;;;2.90;0.80;;;12.50;69.50;;;;;;5066436;28;20041;-73
2022/05/14 03:02:04;;;;;;;2.22;0.90;;;12.50;69.50;;;;;;5061411;28;20066;-71
2022/05/14 03:04:37;;;;;;;6.20;1.40;;;12.50;69.50;;;;;;5068268;28;20051;-73
2022/05/14 03:07:11;;;;;;;2.08;0.80;;;12.40;69.60;;;;;;5063226;28;20924;-73
2022/05/14 03:09:42;;;;;;;4.47;1.05;;;12.50;69.50;;;;;;5041919;28;20135;-74
2022/05/14 03:12:15;;;;;;;1.92;1.00;;;12.40;69.60;;;;;;5065929;28;20060;-73
2022/05/14 03:14:43;;;;;;;2.97;1.10;;;12.30;69.70;;;;;;5062268;28;20052;-74
2022/05/14 03:17:10;;;;;;;4.18;1.20;;;12.40;69.70;;;;;;5058733;28;20143;-76
2022/05/14 03:19:37;;;;;;;3.15;1.13;;;12.40;69.70;;;;;;5062449;28;20090;-73
2022/05/14 03:22:05;;;;;;;3.72;0.98;;;12.30;69.70;;;;;;5060724;28;20425;-73
2022/05/14 03:24:33;;;;;;;1.25;0.73;;;12.20;69.70;;;;;;5065313;28;20052;-75
2022/05/14 03:27:01;;;;;;;2.05;1.02;;;12.20;69.70;;;;;;5069758;28;20037;-75
2022/05/14 03:29:29;;;;;;;3.03;0.98;;;12.20;69.70;;;;;;5068312;28;20072;-74
2022/05/14 03:31:57;;;;;;;3.15;1.08;;;12.20;69.80;;;;;;5067785;28;20417;-74
2022/05/14 03:34:25;;;;;;;3.15;1.00;;;12.20;69.90;;;;;;5053363;28;20060;-73
2022/05/14 03:36:52;;;;;;;2.78;0.95;;;12.10;69.90;;;;;;5037073;28;20041;-73
2022/05/14 03:39:20;;;;;;;1.23;0.80;;;12.10;69.90;;;;;;5008635;28;20049;-73
2022/05/14 03:41:47;;;;;;;3.13;1.13;;;12.10;69.90;;;;;;5022075;28;20589;-74
2022/05/14 03:44:16;;;;;;;2.72;0.98;;;12.10;69.90;;;;;;5030632;28;20052;-75
2022/05/14 03:46:43;;;;;;;2.28;0.75;;;12.10;69.90;;;;;;5015204;28;20144;-75
2022/05/14 03:49:10;;;;;;;1.45;0.88;;;12.10;69.90;;;;;;5029001;28;20731;-76
2022/05/14 03:51:37;;;;;;;2.55;1.00;;;12.10;70.00;;;;;;5030550;28;20509;-74
2022/05/14 03:54:05;;;;;;;3.78;0.95;;;12.10;69.90;;;;;;5032996;28;20037;-73
2022/05/14 03:56:33;;;;;;;4.82;1.23;;;12.00;70.00;;;;;;5021188;28;20044;-75
2022/05/14 03:59:00;;;;;;;4.63;0.85;;;12.00;70.10;;;;;;5033862;28;20129;-74
2022/05/14 04:01:29;;;;;;;2.47;1.00;;;12.00;70.20;;;;;;5034163;28;20053;-74
2022/05/14 04:03:57;;;;;;;3.28;1.25;;;12.00;70.10;;;;;;5026134;28;20037;-74
2022/05/14 04:06:24;;;;;;;4.80;1.27;;;12.00;70.20;;;;;;5038757;28;20053;-73
2022/05/14 04:08:52;;;;;;;3.55;1.23;;;12.00;70.30;;;;;;5041747;28;20128;-73
2022/05/14 04:11:19;;;;;;;2.88;1.10;;;11.90;70.30;;;;;;5035354;28;20047;-73
2022/05/14 04:13:47;;;;;;;3.00;1.30;;;11.90;70.30;;;;;;5026299;28;20529;-75
2022/05/14 04:16:14;;;;;;;2.40;1.02;;;11.90;70.40;;;;;;5038728;28;20128;-73
2022/05/14 04:18:43;;;;;;;2.50;1.10;;;11.90;70.50;;;;;;5019916;28;20251;-73
2022/05/14 04:21:11;;;;;;;3.33;1.00;;;11.90;70.50;;;;;;5035431;28;20037;-73
2022/05/14 04:23:39;;;;;;;2.75;1.17;;;11.90;70.50;;;;;;5021480;28;20127;-74
2022/05/14 04:26:06;;;;;;;2.72;1.08;;;11.90;70.60;;;;;;5037561;28;20124;-73
2022/05/14 04:28:34;;;;;;;2.03;1.10;;;11.90;70.60;;;;;;5012313;28;20419;-75
2022/05/14 04:31:01;;;;;;;3.72;1.00;;;11.90;70.60;;;;;;5033147;28;20064;-74
2022/05/14 04:33:29;;;;;;;1.88;1.10;;;11.90;70.60;;;;;;5042699;28;20134;-74
2022/05/14 04:35:58;;;;;;;1.92;1.13;;;11.90;70.60;;;;;;5064459;28;20037;-74
2022/05/14 04:38:26;;;;;;;1.85;1.05;;;11.90;70.70;;;;;;5063772;28;20182;-74
2022/05/14 04:40:53;;;;;;;2.17;0.82;;;11.80;70.80;;;;;;5064580;28;20043;-74
2022/05/14 04:43:20;;;;;;;3.45;1.40;;;11.90;70.90;;;;;;5066920;28;20044;-74
2022/05/14 04:45:48;;;;;;;1.98;0.77;;;11.80;70.90;;;;;;5051890;28;20060;-72
2022/05/14 04:48:15;;;;;;;3.53;1.08;;;11.80;71.20;;;;;;5067477;28;20124;-75
2022/05/14 04:50:44;;;;;;;2.55;0.88;;;11.80;71.10;;;;;;5070323;28;20040;-73
2022/05/14 04:53:13;;;;;;;3.03;1.42;;;11.80;71.10;;;;;;5060333;28;20406;-73
2022/05/14 04:55:40;;;;;;;2.80;0.80;;;11.90;71.00;;;;;;5068702;28;20052;-74
2022/05/14 04:58:08;;;;;;;2.40;1.00;;;11.90;71.10;;;;;;5068108;28;20477;-74
2022/05/14 05:00:36;;;;;;;3.45;1.42;;;11.80;71.10;;;;;;5044931;28;20052;-72
2022/05/14 05:03:17;;;;;;;3.92;1.10;;;11.90;71.10;;;;;;5060909;28;20199;-72
2022/05/14 05:05:45;;;;;;;2.28;0.95;;;11.90;71.30;;;;;;5062727;28;20052;-74
2022/05/14 05:08:14;;;;;;;3.47;1.08;;;11.80;71.30;;;;;;5072577;28;20163;-74
2022/05/14 05:10:41;;;;;;;3.17;1.15;;;11.70;71.60;;;;;;5069667;28;20043;-73
2022/05/14 05:13:13;;;;;;;3.03;0.95;;;11.80;71.70;;;;;;5060945;28;20565;-73
2022/05/14 05:15:40;;;;;;;2.65;1.20;;;11.80;71.70;;;;;;5064062;28;20036;-73
2022/05/14 05:18:08;;;;;;;4.18;1.17;;;11.80;71.60;;;;;;5067384;28;20043;-73
2022/05/14 05:20:37;;;;;;;3.25;1.30;;;11.80;71.60;;;;;;5070908;28;20045;-73
2022/05/14 05:23:05;;;;;;;1.58;1.00;;;11.80;71.80;;;;;;5070876;28;20048;-73
2022/05/14 05:25:35;;;;;;;2.50;0.80;;;11.80;71.70;;;;;;5047663;28;20048;-74
2022/05/14 05:28:02;;;;;;;2.00;1.02;;;11.90;71.80;;;;;;5064381;28;20472;-73
2022/05/14 05:30:29;;;;;;;3.50;1.42;;;11.90;71.70;;;;;;5070038;28;20163;-75
2022/05/14 05:32:56;;;;;;;3.70;1.08;;;11.90;71.60;;;;;;5074992;28;20040;-73
2022/05/14 05:35:23;;;;;;;2.85;1.33;;;11.90;71.70;;;;;;5068114;28;20064;-74
2022/05/14 05:37:50;;;;;;;2.72;1.15;;;11.90;71.80;;;;;;5072711;28;20039;-73
2022/05/14 05:40:17;;;;;;;2.55;1.15;;;11.90;71.80;;;;;;5070285;28;20062;-74
2022/05/14 05:42:46;;;;;;;3.15;1.15;;;11.90;71.90;;;;;;5066446;28;20043;-74
2022/05/14 05:45:15;;;;;;;2.58;0.98;;;11.90;71.80;;;;;;5066521;28;20115;-74
2022/05/14 05:47:42;;;;;;;1.67;1.00;;;12.00;71.90;;;;;;5075421;28;20040;-74
2022/05/14 05:50:10;;;;;;;4.03;1.25;;;11.90;72.20;;;;;;5076074;28;20051;-73
2022/05/14 05:52:37;;;;;;;2.45;0.95;;;11.90;72.20;;;;;;5074972;28;20048;-74
2022/05/14 05:57:50;;;;;;;3.47;1.00;;;12.10;72.00;;;;;;5075528;28;20099;-74
2022/05/14 06:00:20;;;;;;;2.70;1.30;;;12.10;72.20;;;;;;5071857;28;20501;-73
2022/05/14 06:02:47;;;;;;;5.20;1.40;;;12.10;72.30;;;;;;5076240;28;20076;-73
2022/05/14 06:05:15;;;;;;;3.40;1.48;;;12.20;72.20;;;;;;5075076;28;20044;-72
2022/05/14 06:07:42;;;;;;;2.53;1.02;;;12.20;72.20;;;;;;5074714;28;20044;-73
2022/05/14 06:10:12;;;;;;;4.72;1.10;;;12.20;72.30;;;;;;5075254;28;20502;-72
2022/05/14 06:12:39;;;;;;;2.72;1.20;;;12.30;72.20;;;;;;5075432;28;20044;-75
2022/05/14 06:15:11;;;;;;;2.53;1.20;;;12.40;72.00;;;;;;5071604;28;20056;-73
2022/05/14 06:17:38;;;;;;;3.75;1.20;;;12.40;72.10;;;;;;5073383;28;20044;-72
2022/05/14 06:20:08;;;;;;;1.27;0.88;;;12.50;72.10;;;;;;5067665;28;20119;-74
2022/05/14 06:22:35;;;;;;;3.30;1.40;;;12.60;71.80;;;;;;5071952;28;20547;-73
2022/05/14 06:25:04;;;;;;;2.88;1.30;;;12.70;71.60;;;;;;5066874;28;20052;-74
2022/05/14 06:27:31;;;;;;;3.00;1.10;;;12.80;71.70;;;;;;5065032;28;20527;-71
2022/05/14 06:29:58;;;;;;;3.17;1.15;;;12.90;71.60;;;;;;5068836;28;20373;-71
2022/05/14 06:32:26;;;;;;;3.00;1.33;;;12.90;71.30;;;;;;5063635;28;20052;-74
2022/05/14 06:34:53;;;;;;;3.88;1.30;;;13.00;71.40;;;;;;5063925;28;20144;-73
2022/05/14 06:37:20;;;;;;;8.13;1.45;;;13.10;71.40;;;;;;5064660;28;20504;-74
2022/05/14 06:39:47;;;;;;;3.40;1.45;;;13.20;71.40;;;;;;5057705;28;20041;-74
2022/05/14 06:42:15;;;;;;;4.50;1.35;;;13.30;71.30;;;;;;5052279;28;20040;-72
2022/05/14 06:44:43;;;;;;;3.30;1.17;;;13.40;71.00;;;;;;5063789;28;20052;-74
2022/05/14 06:47:10;;;;;;;4.40;1.42;;;13.60;71.00;;;;;;5062989;28;20044;-72
2022/05/14 06:49:38;;;;;;;4.20;1.42;;;13.80;70.50;;;;;;5060439;28;20044;-72
2022/05/14 06:52:08;;;;;;;3.47;1.08;;;13.90;70.50;;;;;;5064542;28;20375;-72
2022/05/14 06:54:38;;;;;;;3.53;1.77;;;14.10;70.30;;;;;;5069350;28;20041;-74
2022/05/14 06:57:06;;;;;;;4.03;1.95;;;14.20;70.00;;;;;;5072988;28;20509;-72
2022/05/14 06:59:34;;;;;;;2.95;1.35;;;14.40;69.60;;;;;;5075425;28;20055;-73
2022/05/14 07:02:02;;;;;;;5.25;1.95;;;14.50;69.50;;;;;;5052532;28;20033;-74
2022/05/14 07:07:17;;;;;;;3.42;0.90;;;14.70;68.80;;;;;;5051380;28;20048;-72
2022/05/14 07:09:44;;;;;;;3.60;1.88;;;14.80;68.10;;;;;;5053151;28;20049;-72
2022/05/14 07:12:14;;;;;;;3.08;1.20;;;15.00;67.60;;;;;;5064088;28;20040;-73
2022/05/14 07:14:43;;;;;;;4.38;1.25;;;15.10;67.60;;;;;;5061256;28;20102;-72
2022/05/14 07:17:11;;;;;;;4.40;1.40;;;15.30;67.30;;;;;;5065984;28;20184;-72
2022/05/14 07:19:40;;;;;;;4.03;1.13;;;15.40;67.10;;;;;;5059730;28;20047;-73
2022/05/14 07:22:08;;;;;;;5.00;1.20;;;15.60;67.30;;;;;;5060236;28;20044;-73
2022/05/14 07:24:36;;;;;;;2.35;1.05;;;15.80;66.90;;;;;;5060316;28;20487;-71
2022/05/14 07:27:10;;;;;;;2.55;0.93;;;16.00;66.30;;;;;;5060995;28;20048;-73
2022/05/14 07:29:37;;;;;;;3.53;1.40;;;16.20;66.20;;;;;;5059853;28;20103;-72
2022/05/14 07:32:04;;;;;;;2.40;1.00;;;16.30;65.70;;;;;;5050089;28;20037;-73
2022/05/14 07:34:32;;;;;;;3.80;1.20;;;16.50;65.60;;;;;;5045520;28;20119;-73
2022/05/14 07:37:05;;;;;;;3.13;1.40;;;16.60;65.80;;;;;;5039643;28;20110;-73
2022/05/14 07:39:35;;;;;;;4.22;0.95;;;16.70;65.40;;;;;;5040531;28;20041;-75
2022/05/14 07:42:07;;;;;;;4.53;1.45;;;16.90;65.10;;;;;;5041907;28;20052;-74
2022/05/14 07:44:37;;;;;;;2.60;1.30;;;17.00;64.90;;;;;;5040921;28;20044;-71
2022/05/14 07:47:10;;;;;;;4.18;1.27;;;17.10;64.80;;;;;;5041080;28;20060;-73
2022/05/14 07:49:37;;;;;;;3.40;1.17;;;17.30;63.80;;;;;;5039168;28;20040;-73
2022/05/14 07:52:04;;;;;;;4.05;1.20;;;17.40;63.90;;;;;;5039744;28;20055;-72
2022/05/14 07:54:33;;;;;;;2.58;1.10;;;17.60;64.30;;;;;;5039015;28;21283;-73
2022/05/14 07:57:02;;;;;;;4.18;1.45;;;17.70;64.40;;;;;;5040789;28;20052;-74
2022/05/14 07:59:30;;;;;;;6.38;1.45;;;17.80;64.20;;;;;;5038884;28;20045;-73
2022/05/14 08:01:57;;;;;;;8.82;1.48;;;18.00;63.10;;;;;;5036146;28;20052;-73
2022/05/14 08:04:24;;;;;;;7.13;1.70;;;18.10;61.90;;;;;;5039241;28;20033;-74
2022/05/14 08:06:51;;;;;;;5.82;1.85;;;18.20;62.20;;;;;;5040139;28;20102;-71
2022/05/14 08:09:18;;;;;;;5.78;1.52;;;18.40;62.30;;;;;;5038016;28;20048;-73
2022/05/14 08:11:45;;;;;;;6.45;1.45;;;18.50;61.80;;;;;;5038485;28;20406;-73
2022/05/14 08:14:12;;;;;;;8.98;1.95;;;18.60;61.30;;;;;;5040847;28;20076;-73
2022/05/14 08:16:41;;;;;;;9.32;2.72;;;18.80;61.40;;;;;;5038733;28;20045;-73
2022/05/14 08:19:07;;;;;;;5.65;1.40;;;18.80;60.50;;;;;;5040686;28;20044;-74
2022/05/14 08:24:34;;;;;;;6.45;1.30;;;19.00;60.40;;;;;;5039489;28;20044;-75
2022/05/14 08:27:05;;;;;;;4.93;1.60;;;19.00;60.10;;;;;;5029603;28;20040;-72
2022/05/14 08:29:32;;;;;;;6.80;1.65;;;19.10;60.00;;;;;;5037263;28;20037;-72
2022/05/14 08:32:02;;;;;;;4.18;1.20;;;19.20;60.10;;;;;;5043504;28;20127;-72
2022/05/14 08:34:29;;;;;;;2.83;1.35;;;19.40;59.50;;;;;;5049750;28;20072;-73
2022/05/14 08:36:56;;;;;;;4.88;1.60;;;19.50;59.80;;;;;;5068336;28;20028;-72
2022/05/14 08:39:23;;;;;;;5.80;1.45;;;19.60;59.90;;;;;;5054708;28;20037;-75
2022/05/14 08:41:53;;;;;;;4.80;1.30;;;19.70;59.70;;;;;;5067212;28;20142;-74
2022/05/14 08:44:23;;;;;;;5.05;1.45;;;19.80;59.50;;;;;;5065354;28;20060;-74
2022/05/14 08:46:55;;;;;;;5.68;1.50;;;19.90;59.80;;;;;;5067664;28;20102;-74
2022/05/14 08:49:35;;;;;;;3.92;1.67;;;20.10;58.80;;;;;;5061922;28;20052;-75
2022/05/14 08:52:07;;;;;;;3.92;1.67;;;20.10;57.80;;;;;;5051484;28;20071;-73
2022/05/14 08:54:34;;;;;;;4.88;1.40;;;20.20;57.70;;;;;;5058284;28;20490;-73
2022/05/14 08:57:11;;;;;;;4.72;1.23;;;20.30;56.80;;;;;;5058473;28;20058;-77
2022/05/14 08:59:51;;;;;;;4.70;1.23;;;20.40;57.30;;;;;;5048226;28;20047;-75
2022/05/14 09:02:21;;;;;;;2.38;1.23;;;20.50;56.50;;;;;;5060984;28;20044;-75
2022/05/14 09:04:50;;;;;;;5.45;0.98;;;20.60;56.40;;;;;;5062353;28;20046;-75
2022/05/14 09:07:19;;;;;;;3.35;0.93;;;20.60;56.30;;;;;;5055753;28;20127;-75
2022/05/14 09:09:51;;;;;;;4.88;0.95;;;20.80;55.90;;;;;;5068056;28;20131;-73
2022/05/14 09:12:23;;;;;;;3.78;0.95;;;20.80;55.20;;;;;;5065441;28;20079;-75
2022/05/14 09:14:58;;;;;;;5.88;1.05;;;20.90;55.90;;;;;;5068201;28;20072;-74
2022/05/14 09:17:29;;;;;;;2.38;0.88;;;21.00;55.60;;;;;;5061894;28;20052;-75
2022/05/14 09:19:59;;;;;;;5.70;1.60;;;21.10;55.40;;;;;;5047916;28;20029;-74
2022/05/14 09:22:34;;;;;;;4.05;1.20;;;21.20;55.00;;;;;;5057050;28;20052;-74
2022/05/14 09:25:15;;;;;;;4.28;1.17;;;21.20;54.80;;;;;;5054123;28;20037;-75
2022/05/14 09:27:46;;;;;;;5.90;1.15;;;21.30;55.00;;;;;;5057308;28;20094;-77
2022/05/14 09:30:23;;;;;;;4.03;1.15;;;21.40;55.10;;;;;;5060073;28;20043;-75
2022/05/14 09:32:52;;;;;;;4.82;2.25;;;21.50;53.90;;;;;;5045310;28;20103;-77
2022/05/14 09:35:23;;;;;;;6.68;3.28;;;21.50;53.90;;;;;;5063917;28;20056;-76
2022/05/14 09:37:51;;;;;;;10.73;3.80;;;21.60;54.50;;;;;;5066016;28;20490;-76
2022/05/14 09:40:24;;;;;;;15.18;4.50;;;21.60;53.90;;;;;;5065169;28;20048;-76
2022/05/14 09:42:55;;;;;;;12.02;5.05;;;21.70;53.50;;;;;;5064944;28;20048;-76
2022/05/14 09:45:29;;;;;;;7.70;3.08;;;21.70;53.00;;;;;;5064795;28;20135;-76
2022/05/14 09:47:56;;;;;;;12.13;4.10;;;21.80;53.00;;;;;;5066051;28;20049;-74
2022/05/14 09:50:32;;;;;;;7.72;2.58;;;21.80;52.80;;;;;;5065006;28;20048;-74
2022/05/14 09:53:02;;;;;;;17.73;5.22;;;22.00;52.30;;;;;;5069393;28;20111;-75
2022/05/14 09:55:46;;;;;;;10.77;2.90;;;22.00;52.90;;;;;;5070110;28;20051;-75
2022/05/14 09:58:20;;;;;;;9.07;2.03;;;22.10;52.20;;;;;;5058094;28;20596;-75
2022/05/14 10:01:03;;;;;;;7.63;1.85;;;22.10;52.20;;;;;;5065535;28;20492;-76
2022/05/14 10:03:44;;;;;;;8.60;3.30;;;22.10;51.50;;;;;;5061288;28;20078;-75
2022/05/14 10:06:37;;;;;;;11.75;5.50;;;22.20;51.90;;;;;;5071076;28;20152;-77
2022/05/14 10:09:21;;;;;;;16.02;5.95;;;22.30;51.70;;;;;;5070061;28;20040;-75
2022/05/14 10:11:54;;;;;;;5.75;3.15;;;22.30;51.50;;;;;;5074879;28;20036;-75
2022/05/14 10:14:32;;;;;;;6.90;3.30;;;22.40;50.60;;;;;;5074491;28;20048;-75
2022/05/14 10:17:15;;;;;;;8.07;2.67;;;22.40;50.30;;;;;;5065993;28;20097;-74
2022/05/14 10:20:25;;;;;;;6.03;2.38;;;22.50;50.60;;;;;;5071719;28;20060;-75
2022/05/14 10:29:04;;;;;;;4.75;2.40;;;22.50;49.50;;;;;;5063092;28;20486;-74
2022/05/14 10:31:36;;;;;;;6.45;2.00;;;22.60;49.50;;;;;;5066613;28;20036;-73
2022/05/14 10:34:12;;;;;;;4.57;1.67;;;22.60;48.90;;;;;;5049904;28;20049;-74
2022/05/14 10:36:45;;;;;;;4.68;1.00;;;22.60;48.80;;;;;;5040506;28;20048;-76
2022/05/14 10:39:21;;;;;;;4.10;1.00;;;22.60;48.60;;;;;;5049700;28;20044;-76
2022/05/14 10:41:53;;;;;;;2.22;0.93;;;22.70;48.40;;;;;;5049477;28;20048;-75
2022/05/14 10:44:34;;;;;;;5.15;1.27;;;22.70;48.40;;;;;;5048564;28;20514;-76
2022/05/14 10:47:05;;;;;;;4.15;1.00;;;22.80;48.30;;;;;;5041068;28;20042;-78
2022/05/14 10:49:38;;;;;;;4.63;1.30;;;22.80;48.00;;;;;;5048264;28;20052;-77
2022/05/14 10:52:15;;;;;;;2.63;1.30;;;22.90;47.80;;;;;;5042531;28;20517;-76
2022/05/14 10:54:45;;;;;;;3.42;1.42;;;22.80;47.80;;;;;;5015802;28;20897;-77
2022/05/14 10:57:36;;;;;;;5.75;1.27;;;22.80;47.60;;;;;;5042229;28;20372;-77
2022/05/14 11:00:23;;;;;;;5.00;1.02;;;22.80;47.50;;;;;;5035447;28;20041;-74
2022/05/14 11:02:56;;;;;;;2.42;1.00;;;22.80;47.40;;;;;;5038267;28;20055;-76
2022/05/14 11:05:33;;;;;;;3.95;0.70;;;22.90;47.00;;;;;;5040459;28;20479;-78
2022/05/14 11:08:13;;;;;;;3.05;0.82;;;22.90;47.20;;;;;;5039009;28;20033;-77
2022/05/14 11:10:42;;;;;;;2.33;0.70;;;22.90;46.80;;;;;;5037251;28;20041;-77
2022/05/14 11:13:16;;;;;;;3.55;1.02;;;22.90;46.80;;;;;;5022823;28;20072;-76
2022/05/14 11:15:44;;;;;;;4.30;0.80;;;22.90;46.60;;;;;;5040936;28;20032;-77
2022/05/14 11:18:14;;;;;;;2.03;0.70;;;23.00;46.60;;;;;;5048292;28;20057;-76
2022/05/14 11:20:54;;;;;;;4.15;0.88;;;23.00;47.00;;;;;;5046850;28;20042;-77
2022/05/14 11:23:21;;;;;;;2.42;1.20;;;23.00;46.80;;;;;;5041229;28;20048;-78
2022/05/14 11:26:03;;;;;;;1.70;1.20;;;23.00;46.60;;;;;;5051486;28;20045;-77
2022/05/14 11:28:31;;;;;;;1.75;0.65;;;23.00;46.20;;;;;;5047049;28;20053;-76
2022/05/14 11:31:18;;;;;;;1.67;0.73;;;23.10;46.50;;;;;;5033332;28;20049;-76
2022/05/14 11:33:47;;;;;;;4.35;1.30;;;23.10;46.30;;;;;;5044658;28;20082;-78
2022/05/14 11:36:26;;;;;;;2.53;1.37;;;23.10;46.50;;;;;;5063422;28;20044;-76
2022/05/14 11:39:07;;;;;;;1.33;0.70;;;23.10;46.40;;;;;;5060976;28;20040;-78
2022/05/14 11:41:37;;;;;;;3.25;0.98;;;23.10;46.20;;;;;;5060672;28;20505;-76
2022/05/14 11:44:07;;;;;;;5.25;1.38;;;23.10;46.30;;;;;;5063201;28;20103;-77
2022/05/14 11:46:40;;;;;;;;;;;23.10;46.60;;;;;;5062904;28;20090;-78
2022/05/14 11:49:20;;;;;;;2.38;0.93;;;23.10;46.40;;;;;;5061079;28;19928;-76
2022/05/14 11:51:58;;;;;;;2.45;0.82;;;23.10;46.70;;;;;;5046171;28;20379;-76
2022/05/14 11:54:31;;;;;;;4.80;0.80;;;23.10;46.50;;;;;;5061562;28;20044;-76
2022/05/14 11:57:03;;;;;;;2.17;0.98;;;23.10;46.40;;;;;;5062395;28;20383;-76
2022/05/14 11:59:37;;;;;;;1.33;0.75;;;23.20;46.40;;;;;;5070183;28;20048;-75
2022/05/14 12:02:11;;;;;;;2.22;0.75;;;23.20;46.50;;;;;;5066638;28;20490;-73
2022/05/14 12:04:42;;;;;;;1.45;0.70;;;23.30;46.20;;;;;;5053919;28;20535;-75
2022/05/14 12:07:44;;;;;;;2.50;0.77;;;23.20;46.30;;;;;;5061585;28;20087;-74
2022/05/14 12:10:22;;;;;;;3.08;0.90;;;23.20;46.20;;;;;;5049982;28;20148;-74
2022/05/14 12:12:58;;;;;;;3.40;0.73;;;23.20;46.30;;;;;;5067483;28;20044;-75
2022/05/14 12:15:25;;;;;;;3.25;0.70;;;23.20;46.40;;;;;;5052534;28;20394;-76
2022/05/14 12:17:54;;;;;;;3.83;1.20;;;23.20;46.40;;;;;;5068948;28;20151;-74
2022/05/14 12:20:23;;;;;;;3.70;1.20;;;23.20;46.20;;;;;;5069988;28;20078;-76
2022/05/14 12:22:56;;;;;;;2.80;1.00;;;23.20;46.00;;;;;;5068309;28;20045;-74
2022/05/14 12:25:36;;;;;;;5.32;1.85;;;23.20;46.10;;;;;;5069256;28;20383;-76
2022/05/14 12:28:04;;;;;;;4.57;1.98;;;23.30;46.10;;;;;;5070468;28;20076;-76
2022/05/14 12:33:18;;;;;;;4.18;1.05;;;23.30;46.10;;;;;;5069893;28;20053;-75
2022/05/14 12:35:53;;;;;;;3.63;1.00;;;23.30;46.00;;;;;;5066707;28;20048;-76
2022/05/14 12:38:26;;;;;;;2.95;0.90;;;23.30;46.20;;;;;;5066391;28;20044;-76
2022/05/14 12:40:57;;;;;;;3.38;1.15;;;23.30;46.20;;;;;;5070546;28;20087;-77
2022/05/14 12:43:27;;;;;;;1.65;0.80;;;23.30;46.20;;;;;;5070271;28;20045;-76
2022/05/14 12:46:03;;;;;;;3.30;1.08;;;23.30;46.40;;;;;;5069928;28;20051;-75
2022/05/14 12:48:31;;;;;;;2.25;0.82;;;23.30;46.30;;;;;;5069239;28;20055;-76
2022/05/14 12:51:00;;;;;;;3.10;0.75;;;23.30;46.10;;;;;;5069445;28;20119;-77
2022/05/14 12:53:36;;;;;;;3.67;0.70;;;23.30;46.20;;;;;;5070698;28;20051;-77
2022/05/14 12:56:04;;;;;;;1.67;0.68;;;23.30;46.10;;;;;;5069120;28;20067;-76
2022/05/14 12:58:33;;;;;;;4.93;1.10;;;23.30;46.10;;;;;;5068942;28;20078;-77
2022/05/14 13:01:04;;;;;;;3.90;1.02;;;23.30;46.20;;;;;;5066833;28;20267;-75
2022/05/14 13:03:38;;;;;;;6.28;1.30;;;23.30;46.30;;;;;;5068406;28;20654;-78
2022/05/14 13:06:08;;;;;;;2.65;0.90;;;23.30;46.10;;;;;;5067770;28;20040;-77
2022/05/14 13:08:36;;;;;;;3.53;1.40;;;23.30;45.80;;;;;;5068417;28;20044;-76
2022/05/14 13:11:11;;;;;;;3.63;0.80;;;23.30;45.10;;;;;;5070287;28;20047;-78
2022/05/14 13:13:41;;;;;;;1.08;0.70;;;23.40;44.60;;;;;;5068795;28;20421;-78
2022/05/14 13:16:13;;;;;;;3.42;0.85;;;23.30;45.50;;;;;;5069896;28;20048;-78
2022/05/14 13:18:44;;;;;;;3.05;0.90;;;23.30;45.70;;;;;;5070417;28;20040;-78
2022/05/14 13:21:21;;;;;;;5.22;0.82;;;23.30;45.90;;;;;;5069324;28;20059;-77
2022/05/14 13:23:58;;;;;;;4.70;1.00;;;23.30;46.00;;;;;;5069303;28;20084;-77
2022/05/14 13:26:31;;;;;;;3.72;0.93;;;23.20;46.00;;;;;;5073059;28;20044;-76